sensor_id;sensor_type;location;lat;lon;timestamp;P1;durP1;ratioP1;P2;durP2;ratioP2
73585;SDS011;61865;50.232;18.614;2023-12-14T00:00:12;169.57;;;53.28;;
73585;SDS011;61865;50.232;18.614;2023-12-14T00:02:36;176.88;;;57.83;;
73585;SDS011;61865;50.232;18.614;2023-12-14T00:04:58;116.35;;;44.58;;
73585;SDS011;61865;50.232;18.614;2023-12-14T00:07:20;144.60;;;48.63;;
73585;SDS011;61865;50.232;18.614;2023-12-14T00:09:41;175.40;;;57.70;;
73585;SDS011;61865;50.232;18.614;2023-12-14T00:12:04;167.82;;;52.83;;
73585;SDS011;61865;50.232;18.614;2023-12-14T00:14:26;129.60;;;48.28;;
73585;SDS011;61865;50.232;18.614;2023-12-14T00:16:48;141.60;;;49.63;;
73585;SDS011;61865;50.232;18.614;2023-12-14T00:19:12;131.07;;;47.63;;
73585;SDS011;61865;50.232;18.614;2023-12-14T00:21:33;95.38;;;36.22;;
73585;SDS011;61865;50.232;18.614;2023-12-14T00:23:55;155.38;;;49.38;;
73585;SDS011;61865;50.232;18.614;2023-12-14T00:26:17;105.68;;;42.33;;
73585;SDS011;61865;50.232;18.614;2023-12-14T00:28:40;121.30;;;40.33;;
73585;SDS011;61865;50.232;18.614;2023-12-14T00:31:02;126.70;;;44.20;;
73585;SDS011;61865;50.232;18.614;2023-12-14T00:33:24;158.15;;;50.40;;
73585;SDS011;61865;50.232;18.614;2023-12-14T00:35:48;119.90;;;43.88;;
73585;SDS011;61865;50.232;18.614;2023-12-14T00:38:10;144.15;;;47.40;;
73585;SDS011;61865;50.232;18.614;2023-12-14T00:40:32;130.30;;;43.80;;
73585;SDS011;61865;50.232;18.614;2023-12-14T00:42:54;139.40;;;45.92;;
73585;SDS011;61865;50.232;18.614;2023-12-14T00:45:17;136.90;;;47.95;;
73585;SDS011;61865;50.232;18.614;2023-12-14T00:47:39;97.45;;;39.38;;
73585;SDS011;61865;50.232;18.614;2023-12-14T00:50:01;124.85;;;40.88;;
73585;SDS011;61865;50.232;18.614;2023-12-14T00:52:25;136.23;;;41.10;;
73585;SDS011;61865;50.232;18.614;2023-12-14T00:54:48;152.35;;;44.97;;
73585;SDS011;61865;50.232;18.614;2023-12-14T00:57:10;148.77;;;47.38;;
73585;SDS011;61865;50.232;18.614;2023-12-14T00:59:32;150.38;;;45.60;;
73585;SDS011;61865;50.232;18.614;2023-12-14T01:01:54;152.80;;;49.53;;
73585;SDS011;61865;50.232;18.614;2023-12-14T01:04:16;157.25;;;48.80;;
73585;SDS011;61865;50.232;18.614;2023-12-14T01:06:39;129.80;;;44.17;;
73585;SDS011;61865;50.232;18.614;2023-12-14T01:09:02;144.95;;;45.75;;
73585;SDS011;61865;50.232;18.614;2023-12-14T01:11:25;107.43;;;40.03;;
73585;SDS011;61865;50.232;18.614;2023-12-14T01:13:47;133.77;;;43.75;;
73585;SDS011;61865;50.232;18.614;2023-12-14T01:16:09;128.23;;;42.47;;
73585;SDS011;61865;50.232;18.614;2023-12-14T01:18:31;128.48;;;43.80;;
73585;SDS011;61865;50.232;18.614;2023-12-14T01:20:53;93.35;;;38.75;;
73585;SDS011;61865;50.232;18.614;2023-12-14T01:23:16;95.25;;;33.88;;
73585;SDS011;61865;50.232;18.614;2023-12-14T01:25:39;95.35;;;36.10;;
73585;SDS011;61865;50.232;18.614;2023-12-14T01:28:02;95.90;;;34.63;;
73585;SDS011;61865;50.232;18.614;2023-12-14T01:30:24;105.20;;;40.80;;
73585;SDS011;61865;50.232;18.614;2023-12-14T01:32:46;73.07;;;31.67;;
73585;SDS011;61865;50.232;18.614;2023-12-14T01:35:08;132.30;;;41.92;;
73585;SDS011;61865;50.232;18.614;2023-12-14T01:37:30;120.68;;;42.63;;
73585;SDS011;61865;50.232;18.614;2023-12-14T01:39:53;135.02;;;39.67;;
73585;SDS011;61865;50.232;18.614;2023-12-14T01:42:16;103.80;;;36.63;;
73585;SDS011;61865;50.232;18.614;2023-12-14T01:44:39;116.90;;;39.05;;
73585;SDS011;61865;50.232;18.614;2023-12-14T01:47:01;121.57;;;39.70;;
73585;SDS011;61865;50.232;18.614;2023-12-14T01:49:23;110.63;;;37.13;;
73585;SDS011;61865;50.232;18.614;2023-12-14T01:51:45;102.35;;;34.83;;
73585;SDS011;61865;50.232;18.614;2023-12-14T01:54:07;104.40;;;35.42;;
73585;SDS011;61865;50.232;18.614;2023-12-14T01:56:29;95.40;;;35.50;;
73585;SDS011;61865;50.232;18.614;2023-12-14T01:58:53;107.18;;;37.53;;
73585;SDS011;61865;50.232;18.614;2023-12-14T02:01:17;99.93;;;35.78;;
73585;SDS011;61865;50.232;18.614;2023-12-14T02:03:43;97.20;;;34.25;;
73585;SDS011;61865;50.232;18.614;2023-12-14T02:06:06;102.85;;;35.88;;
73585;SDS011;61865;50.232;18.614;2023-12-14T02:08:28;102.50;;;37.88;;
73585;SDS011;61865;50.232;18.614;2023-12-14T02:10:50;99.10;;;35.40;;
73585;SDS011;61865;50.232;18.614;2023-12-14T02:13:12;101.22;;;35.80;;
73585;SDS011;61865;50.232;18.614;2023-12-14T02:15:36;99.13;;;35.97;;
73585;SDS011;61865;50.232;18.614;2023-12-14T02:17:58;122.22;;;39.58;;
73585;SDS011;61865;50.232;18.614;2023-12-14T02:20:20;117.60;;;39.42;;
73585;SDS011;61865;50.232;18.614;2023-12-14T02:22:50;98.00;;;35.63;;
73585;SDS011;61865;50.232;18.614;2023-12-14T02:25:12;117.03;;;38.63;;
73585;SDS011;61865;50.232;18.614;2023-12-14T02:27:35;95.57;;;32.15;;
73585;SDS011;61865;50.232;18.614;2023-12-14T02:29:57;118.47;;;39.25;;
73585;SDS011;61865;50.232;18.614;2023-12-14T02:32:19;101.07;;;34.80;;
73585;SDS011;61865;50.232;18.614;2023-12-14T02:34:41;95.85;;;33.20;;
73585;SDS011;61865;50.232;18.614;2023-12-14T02:37:04;113.88;;;37.65;;
73585;SDS011;61865;50.232;18.614;2023-12-14T02:39:28;116.10;;;40.45;;
73585;SDS011;61865;50.232;18.614;2023-12-14T02:41:50;106.88;;;36.25;;
73585;SDS011;61865;50.232;18.614;2023-12-14T02:44:12;110.28;;;39.67;;
73585;SDS011;61865;50.232;18.614;2023-12-14T02:46:34;139.70;;;44.35;;
73585;SDS011;61865;50.232;18.614;2023-12-14T02:48:57;103.28;;;36.50;;
73585;SDS011;61865;50.232;18.614;2023-12-14T02:51:19;93.65;;;36.60;;
73585;SDS011;61865;50.232;18.614;2023-12-14T02:53:41;109.30;;;36.72;;
73585;SDS011;61865;50.232;18.614;2023-12-14T02:56:06;78.10;;;35.95;;
73585;SDS011;61865;50.232;18.614;2023-12-14T02:58:28;76.30;;;33.35;;
73585;SDS011;61865;50.232;18.614;2023-12-14T03:00:50;69.55;;;33.25;;
73585;SDS011;61865;50.232;18.614;2023-12-14T03:03:12;65.15;;;31.20;;
73585;SDS011;61865;50.232;18.614;2023-12-14T03:05:35;72.43;;;34.20;;
73585;SDS011;61865;50.232;18.614;2023-12-14T03:07:57;65.30;;;29.35;;
73585;SDS011;61865;50.232;18.614;2023-12-14T03:10:19;69.63;;;31.52;;
73585;SDS011;61865;50.232;18.614;2023-12-14T03:12:42;60.72;;;25.83;;
73585;SDS011;61865;50.232;18.614;2023-12-14T03:15:05;46.97;;;23.40;;
73585;SDS011;61865;50.232;18.614;2023-12-14T03:17:27;69.10;;;32.97;;
73585;SDS011;61865;50.232;18.614;2023-12-14T03:19:49;71.80;;;33.30;;
73585;SDS011;61865;50.232;18.614;2023-12-14T03:22:12;62.47;;;29.55;;
73585;SDS011;61865;50.232;18.614;2023-12-14T03:24:34;83.50;;;34.63;;
73585;SDS011;61865;50.232;18.614;2023-12-14T03:26:57;76.07;;;35.83;;
73585;SDS011;61865;50.232;18.614;2023-12-14T03:29:20;67.97;;;34.28;;
73585;SDS011;61865;50.232;18.614;2023-12-14T03:31:42;79.50;;;37.55;;
73585;SDS011;61865;50.232;18.614;2023-12-14T03:34:05;68.50;;;35.20;;
73585;SDS011;61865;50.232;18.614;2023-12-14T03:36:27;68.95;;;35.67;;
73585;SDS011;61865;50.232;18.614;2023-12-14T03:38:49;74.18;;;34.33;;
73585;SDS011;61865;50.232;18.614;2023-12-14T03:41:10;66.35;;;31.75;;
73585;SDS011;61865;50.232;18.614;2023-12-14T03:43:33;66.78;;;33.47;;
73585;SDS011;61865;50.232;18.614;2023-12-14T03:45:56;56.00;;;29.10;;
73585;SDS011;61865;50.232;18.614;2023-12-14T03:48:18;52.13;;;26.80;;
73585;SDS011;61865;50.232;18.614;2023-12-14T03:50:41;72.97;;;36.05;;
73585;SDS011;61865;50.232;18.614;2023-12-14T03:53:03;65.00;;;31.75;;
73585;SDS011;61865;50.232;18.614;2023-12-14T03:55:25;57.58;;;30.77;;
73585;SDS011;61865;50.232;18.614;2023-12-14T03:57:47;60.35;;;31.00;;
73585;SDS011;61865;50.232;18.614;2023-12-14T04:00:10;56.70;;;30.73;;
73585;SDS011;61865;50.232;18.614;2023-12-14T04:02:34;65.20;;;30.85;;
73585;SDS011;61865;50.232;18.614;2023-12-14T04:04:56;80.13;;;35.22;;
73585;SDS011;61865;50.232;18.614;2023-12-14T04:07:18;71.15;;;34.38;;
73585;SDS011;61865;50.232;18.614;2023-12-14T04:09:41;73.25;;;32.38;;
73585;SDS011;61865;50.232;18.614;2023-12-14T04:12:04;68.13;;;31.67;;
73585;SDS011;61865;50.232;18.614;2023-12-14T04:14:26;74.05;;;32.92;;
73585;SDS011;61865;50.232;18.614;2023-12-14T04:16:48;65.20;;;32.28;;
73585;SDS011;61865;50.232;18.614;2023-12-14T04:19:12;62.63;;;32.10;;
73585;SDS011;61865;50.232;18.614;2023-12-14T04:21:34;61.63;;;29.90;;
73585;SDS011;61865;50.232;18.614;2023-12-14T04:23:56;66.85;;;30.80;;
73585;SDS011;61865;50.232;18.614;2023-12-14T04:26:18;72.38;;;30.60;;
73585;SDS011;61865;50.232;18.614;2023-12-14T04:28:41;62.95;;;28.05;;
73585;SDS011;61865;50.232;18.614;2023-12-14T04:31:06;54.15;;;25.70;;
73585;SDS011;61865;50.232;18.614;2023-12-14T04:33:28;65.20;;;29.05;;
73585;SDS011;61865;50.232;18.614;2023-12-14T04:35:53;66.15;;;29.73;;
73585;SDS011;61865;50.232;18.614;2023-12-14T04:38:15;34.08;;;19.27;;
73585;SDS011;61865;50.232;18.614;2023-12-14T04:40:37;59.80;;;25.85;;
73585;SDS011;61865;50.232;18.614;2023-12-14T04:43:00;41.25;;;19.88;;
73585;SDS011;61865;50.232;18.614;2023-12-14T04:45:22;63.42;;;25.98;;
73585;SDS011;61865;50.232;18.614;2023-12-14T04:47:44;59.92;;;29.40;;
73585;SDS011;61865;50.232;18.614;2023-12-14T04:50:07;77.57;;;29.27;;
73585;SDS011;61865;50.232;18.614;2023-12-14T04:52:31;66.13;;;27.10;;
73585;SDS011;61865;50.232;18.614;2023-12-14T04:54:53;54.03;;;23.05;;
73585;SDS011;61865;50.232;18.614;2023-12-14T04:57:16;46.00;;;22.75;;
73585;SDS011;61865;50.232;18.614;2023-12-14T04:59:38;77.85;;;31.73;;
73585;SDS011;61865;50.232;18.614;2023-12-14T05:02:03;67.63;;;29.50;;
73585;SDS011;61865;50.232;18.614;2023-12-14T05:04:25;64.43;;;31.90;;
73585;SDS011;61865;50.232;18.614;2023-12-14T05:06:47;82.72;;;33.63;;
73585;SDS011;61865;50.232;18.614;2023-12-14T05:09:11;56.75;;;25.25;;
73585;SDS011;61865;50.232;18.614;2023-12-14T05:11:33;73.22;;;29.17;;
73585;SDS011;61865;50.232;18.614;2023-12-14T05:13:55;74.72;;;28.65;;
73585;SDS011;61865;50.232;18.614;2023-12-14T05:16:16;60.55;;;25.52;;
73585;SDS011;61865;50.232;18.614;2023-12-14T05:18:39;31.63;;;15.13;;
73585;SDS011;61865;50.232;18.614;2023-12-14T05:21:01;39.42;;;17.95;;
73585;SDS011;61865;50.232;18.614;2023-12-14T05:23:23;52.30;;;20.05;;
73585;SDS011;61865;50.232;18.614;2023-12-14T05:25:47;43.88;;;21.73;;
73585;SDS011;61865;50.232;18.614;2023-12-14T05:28:09;66.40;;;29.50;;
73585;SDS011;61865;50.232;18.614;2023-12-14T05:30:31;48.85;;;21.13;;
73585;SDS011;61865;50.232;18.614;2023-12-14T05:32:53;47.78;;;22.42;;
73585;SDS011;61865;50.232;18.614;2023-12-14T05:35:16;47.58;;;19.60;;
73585;SDS011;61865;50.232;18.614;2023-12-14T05:37:38;48.72;;;19.52;;
73585;SDS011;61865;50.232;18.614;2023-12-14T05:40:01;49.28;;;20.95;;
73585;SDS011;61865;50.232;18.614;2023-12-14T05:42:25;57.33;;;22.45;;
73585;SDS011;61865;50.232;18.614;2023-12-14T05:44:47;46.97;;;22.10;;
73585;SDS011;61865;50.232;18.614;2023-12-14T05:47:09;68.63;;;25.92;;
73585;SDS011;61865;50.232;18.614;2023-12-14T05:49:32;83.60;;;27.27;;
73585;SDS011;61865;50.232;18.614;2023-12-14T05:51:54;68.15;;;27.00;;
73585;SDS011;61865;50.232;18.614;2023-12-14T05:54:17;78.80;;;29.02;;
73585;SDS011;61865;50.232;18.614;2023-12-14T05:56:39;82.72;;;28.45;;
73585;SDS011;61865;50.232;18.614;2023-12-14T05:59:02;74.35;;;27.08;;
73585;SDS011;61865;50.232;18.614;2023-12-14T06:01:25;68.75;;;27.13;;
73585;SDS011;61865;50.232;18.614;2023-12-14T06:03:47;97.90;;;30.63;;
73585;SDS011;61865;50.232;18.614;2023-12-14T06:06:09;80.28;;;29.88;;
73585;SDS011;61865;50.232;18.614;2023-12-14T06:08:33;78.82;;;29.23;;
73585;SDS011;61865;50.232;18.614;2023-12-14T06:10:55;84.43;;;27.38;;
73585;SDS011;61865;50.232;18.614;2023-12-14T06:13:17;77.30;;;27.40;;
73585;SDS011;61865;50.232;18.614;2023-12-14T06:15:42;72.07;;;28.98;;
73585;SDS011;61865;50.232;18.614;2023-12-14T06:18:04;70.53;;;26.48;;
73585;SDS011;61865;50.232;18.614;2023-12-14T06:20:26;73.03;;;27.85;;
73585;SDS011;61865;50.232;18.614;2023-12-14T06:22:48;74.15;;;28.73;;
73585;SDS011;61865;50.232;18.614;2023-12-14T06:25:11;75.28;;;27.27;;
73585;SDS011;61865;50.232;18.614;2023-12-14T06:27:33;71.07;;;26.63;;
73585;SDS011;61865;50.232;18.614;2023-12-14T06:29:55;83.20;;;28.30;;
73585;SDS011;61865;50.232;18.614;2023-12-14T06:32:19;82.55;;;27.88;;
73585;SDS011;61865;50.232;18.614;2023-12-14T06:34:41;64.50;;;23.27;;
73585;SDS011;61865;50.232;18.614;2023-12-14T06:37:03;71.18;;;27.60;;
73585;SDS011;61865;50.232;18.614;2023-12-14T06:39:25;76.65;;;26.10;;
73585;SDS011;61865;50.232;18.614;2023-12-14T06:41:48;75.50;;;26.20;;
73585;SDS011;61865;50.232;18.614;2023-12-14T06:44:10;77.55;;;25.90;;
73585;SDS011;61865;50.232;18.614;2023-12-14T06:46:32;75.47;;;26.08;;
73585;SDS011;61865;50.232;18.614;2023-12-14T06:48:56;78.88;;;32.35;;
73585;SDS011;61865;50.232;18.614;2023-12-14T06:51:18;79.78;;;31.00;;
73585;SDS011;61865;50.232;18.614;2023-12-14T06:53:40;92.45;;;33.38;;
73585;SDS011;61865;50.232;18.614;2023-12-14T06:56:03;91.43;;;35.00;;
73585;SDS011;61865;50.232;18.614;2023-12-14T06:58:26;90.28;;;30.85;;
73585;SDS011;61865;50.232;18.614;2023-12-14T07:00:48;103.88;;;31.45;;
73585;SDS011;61865;50.232;18.614;2023-12-14T07:03:10;124.18;;;33.50;;
73585;SDS011;61865;50.232;18.614;2023-12-14T07:05:34;107.28;;;29.38;;
73585;SDS011;61865;50.232;18.614;2023-12-14T07:07:56;118.22;;;33.78;;
73585;SDS011;61865;50.232;18.614;2023-12-14T07:10:18;106.63;;;30.92;;
73585;SDS011;61865;50.232;18.614;2023-12-14T07:12:41;118.07;;;31.30;;
73585;SDS011;61865;50.232;18.614;2023-12-14T07:15:03;97.95;;;29.98;;
73585;SDS011;61865;50.232;18.614;2023-12-14T07:17:26;103.60;;;30.83;;
73585;SDS011;61865;50.232;18.614;2023-12-14T07:19:49;95.50;;;29.05;;
73585;SDS011;61865;50.232;18.614;2023-12-14T07:22:13;86.00;;;29.15;;
73585;SDS011;61865;50.232;18.614;2023-12-14T07:24:35;78.38;;;27.42;;
73585;SDS011;61865;50.232;18.614;2023-12-14T07:26:57;79.38;;;28.92;;
73585;SDS011;61865;50.232;18.614;2023-12-14T07:29:20;73.70;;;28.27;;
73585;SDS011;61865;50.232;18.614;2023-12-14T07:31:42;82.03;;;29.88;;
73585;SDS011;61865;50.232;18.614;2023-12-14T07:34:04;76.47;;;28.85;;
73585;SDS011;61865;50.232;18.614;2023-12-14T07:36:26;102.75;;;32.60;;
73585;SDS011;61865;50.232;18.614;2023-12-14T07:38:50;81.25;;;30.75;;
73585;SDS011;61865;50.232;18.614;2023-12-14T07:41:12;89.57;;;31.50;;
73585;SDS011;61865;50.232;18.614;2023-12-14T07:43:35;93.95;;;32.63;;
73585;SDS011;61865;50.232;18.614;2023-12-14T07:45:57;99.45;;;34.97;;
73585;SDS011;61865;50.232;18.614;2023-12-14T07:48:19;88.25;;;33.83;;
73585;SDS011;61865;50.232;18.614;2023-12-14T07:50:42;83.20;;;30.92;;
73585;SDS011;61865;50.232;18.614;2023-12-14T07:53:04;90.78;;;36.08;;
73585;SDS011;61865;50.232;18.614;2023-12-14T07:55:27;98.40;;;36.25;;
73585;SDS011;61865;50.232;18.614;2023-12-14T07:57:50;90.25;;;36.55;;
73585;SDS011;61865;50.232;18.614;2023-12-14T08:00:12;88.30;;;35.88;;
73585;SDS011;61865;50.232;18.614;2023-12-14T08:02:34;94.43;;;33.28;;
73585;SDS011;61865;50.232;18.614;2023-12-14T08:04:57;79.57;;;33.60;;
73585;SDS011;61865;50.232;18.614;2023-12-14T08:07:19;91.70;;;34.83;;
73585;SDS011;61865;50.232;18.614;2023-12-14T08:09:41;85.13;;;33.75;;
73585;SDS011;61865;50.232;18.614;2023-12-14T08:12:05;84.72;;;35.40;;
73585;SDS011;61865;50.232;18.614;2023-12-14T08:14:28;78.28;;;33.47;;
73585;SDS011;61865;50.232;18.614;2023-12-14T08:16:50;76.43;;;31.50;;
73585;SDS011;61865;50.232;18.614;2023-12-14T08:19:12;88.30;;;33.90;;
73585;SDS011;61865;50.232;18.614;2023-12-14T08:21:34;70.10;;;29.33;;
73585;SDS011;61865;50.232;18.614;2023-12-14T08:23:57;73.18;;;30.40;;
73585;SDS011;61865;50.232;18.614;2023-12-14T08:26:18;58.10;;;27.60;;
73585;SDS011;61865;50.232;18.614;2023-12-14T08:28:41;64.70;;;25.83;;
73585;SDS011;61865;50.232;18.614;2023-12-14T08:31:04;64.18;;;27.00;;
73585;SDS011;61865;50.232;18.614;2023-12-14T08:33:26;60.47;;;25.05;;
73585;SDS011;61865;50.232;18.614;2023-12-14T08:35:48;73.70;;;27.70;;
73585;SDS011;61865;50.232;18.614;2023-12-14T08:38:10;68.78;;;24.67;;
73585;SDS011;61865;50.232;18.614;2023-12-14T08:40:32;64.70;;;26.33;;
73585;SDS011;61865;50.232;18.614;2023-12-14T08:42:55;67.18;;;25.70;;
73585;SDS011;61865;50.232;18.614;2023-12-14T08:45:18;67.35;;;26.30;;
73585;SDS011;61865;50.232;18.614;2023-12-14T08:47:41;78.07;;;28.80;;
73585;SDS011;61865;50.232;18.614;2023-12-14T08:50:03;75.57;;;26.90;;
73585;SDS011;61865;50.232;18.614;2023-12-14T08:52:26;78.65;;;28.38;;
73585;SDS011;61865;50.232;18.614;2023-12-14T08:54:48;86.10;;;28.77;;
73585;SDS011;61865;50.232;18.614;2023-12-14T08:57:10;86.07;;;30.17;;
73585;SDS011;61865;50.232;18.614;2023-12-14T08:59:33;92.93;;;27.05;;
73585;SDS011;61865;50.232;18.614;2023-12-14T09:01:56;76.43;;;25.33;;
73585;SDS011;61865;50.232;18.614;2023-12-14T09:04:18;90.85;;;28.30;;
73585;SDS011;61865;50.232;18.614;2023-12-14T09:06:41;78.47;;;27.30;;
73585;SDS011;61865;50.232;18.614;2023-12-14T09:09:05;85.03;;;30.02;;
73585;SDS011;61865;50.232;18.614;2023-12-14T09:11:27;87.85;;;29.67;;
73585;SDS011;61865;50.232;18.614;2023-12-14T09:13:49;76.78;;;27.27;;
73585;SDS011;61865;50.232;18.614;2023-12-14T09:16:12;79.43;;;26.75;;
73585;SDS011;61865;50.232;18.614;2023-12-14T09:18:35;74.43;;;25.85;;
73585;SDS011;61865;50.232;18.614;2023-12-14T09:20:58;88.47;;;29.85;;
73585;SDS011;61865;50.232;18.614;2023-12-14T09:23:20;70.75;;;25.48;;
73585;SDS011;61865;50.232;18.614;2023-12-14T09:25:42;76.75;;;27.15;;
73585;SDS011;61865;50.232;18.614;2023-12-14T09:28:05;66.32;;;23.27;;
73585;SDS011;61865;50.232;18.614;2023-12-14T09:30:27;74.47;;;25.38;;
73585;SDS011;61865;50.232;18.614;2023-12-14T09:32:50;68.15;;;24.45;;
73585;SDS011;61865;50.232;18.614;2023-12-14T09:35:13;78.30;;;25.55;;
73585;SDS011;61865;50.232;18.614;2023-12-14T09:37:36;72.97;;;25.08;;
73585;SDS011;61865;50.232;18.614;2023-12-14T09:39:58;64.63;;;22.92;;
73585;SDS011;61865;50.232;18.614;2023-12-14T09:42:21;82.55;;;26.85;;
73585;SDS011;61865;50.232;18.614;2023-12-14T09:44:43;67.50;;;22.55;;
73585;SDS011;61865;50.232;18.614;2023-12-14T09:47:06;61.40;;;22.52;;
73585;SDS011;61865;50.232;18.614;2023-12-14T09:49:29;56.60;;;20.98;;
73585;SDS011;61865;50.232;18.614;2023-12-14T09:51:53;42.72;;;18.40;;
73585;SDS011;61865;50.232;18.614;2023-12-14T09:54:15;56.85;;;22.42;;
73585;SDS011;61865;50.232;18.614;2023-12-14T09:56:45;19.50;;;8.60;;
73585;SDS011;61865;50.232;18.614;2023-12-14T09:59:07;56.13;;;24.20;;
73585;SDS011;61865;50.232;18.614;2023-12-14T10:01:29;52.47;;;22.65;;
73585;SDS011;61865;50.232;18.614;2023-12-14T10:04:01;63.67;;;25.88;;
73585;SDS011;61865;50.232;18.614;2023-12-14T10:06:28;57.95;;;23.58;;
73585;SDS011;61865;50.232;18.614;2023-12-14T10:08:56;47.30;;;20.67;;
73585;SDS011;61865;50.232;18.614;2023-12-14T10:11:18;53.13;;;23.67;;
73585;SDS011;61865;50.232;18.614;2023-12-14T10:13:41;45.25;;;19.90;;
73585;SDS011;61865;50.232;18.614;2023-12-14T10:16:03;53.55;;;22.83;;
73585;SDS011;61865;50.232;18.614;2023-12-14T10:18:26;55.30;;;22.38;;
73585;SDS011;61865;50.232;18.614;2023-12-14T10:20:49;57.42;;;22.92;;
73585;SDS011;61865;50.232;18.614;2023-12-14T10:23:11;50.92;;;21.05;;
73585;SDS011;61865;50.232;18.614;2023-12-14T10:25:36;63.35;;;25.17;;
73585;SDS011;61865;50.232;18.614;2023-12-14T10:27:58;46.55;;;21.77;;
73585;SDS011;61865;50.232;18.614;2023-12-14T10:30:22;50.90;;;23.70;;
73585;SDS011;61865;50.232;18.614;2023-12-14T10:32:46;56.20;;;23.48;;
73585;SDS011;61865;50.232;18.614;2023-12-14T10:35:09;54.30;;;22.20;;
73585;SDS011;61865;50.232;18.614;2023-12-14T10:37:32;56.20;;;23.77;;
73585;SDS011;61865;50.232;18.614;2023-12-14T10:39:59;30.73;;;14.75;;
73585;SDS011;61865;50.232;18.614;2023-12-14T10:42:23;51.05;;;23.35;;
73585;SDS011;61865;50.232;18.614;2023-12-14T10:44:48;41.30;;;21.05;;
73585;SDS011;61865;50.232;18.614;2023-12-14T10:47:11;45.70;;;22.65;;
73585;SDS011;61865;50.232;18.614;2023-12-14T10:49:35;60.03;;;27.52;;
73585;SDS011;61865;50.232;18.614;2023-12-14T10:51:58;54.63;;;24.80;;
73585;SDS011;61865;50.232;18.614;2023-12-14T10:54:21;55.88;;;25.80;;
73585;SDS011;61865;50.232;18.614;2023-12-14T10:56:45;43.05;;;21.08;;
73585;SDS011;61865;50.232;18.614;2023-12-14T10:59:09;58.33;;;25.35;;
73585;SDS011;61865;50.232;18.614;2023-12-14T11:01:32;62.67;;;26.50;;
73585;SDS011;61865;50.232;18.614;2023-12-14T11:03:56;60.33;;;25.13;;
73585;SDS011;61865;50.232;18.614;2023-12-14T11:06:25;55.85;;;24.77;;
73585;SDS011;61865;50.232;18.614;2023-12-14T11:08:48;51.83;;;22.92;;
73585;SDS011;61865;50.232;18.614;2023-12-14T11:11:10;42.75;;;19.50;;
73585;SDS011;61865;50.232;18.614;2023-12-14T11:13:36;62.83;;;25.55;;
73585;SDS011;61865;50.232;18.614;2023-12-14T11:16:04;47.28;;;22.10;;
73585;SDS011;61865;50.232;18.614;2023-12-14T11:18:27;62.63;;;26.25;;
73585;SDS011;61865;50.232;18.614;2023-12-14T11:20:49;54.42;;;26.88;;
73585;SDS011;61865;50.232;18.614;2023-12-14T11:23:11;45.58;;;22.98;;
73585;SDS011;61865;50.232;18.614;2023-12-14T11:25:33;59.55;;;27.02;;
73585;SDS011;61865;50.232;18.614;2023-12-14T11:27:58;43.42;;;18.55;;
73585;SDS011;61865;50.232;18.614;2023-12-14T11:30:25;51.88;;;24.15;;
73585;SDS011;61865;50.232;18.614;2023-12-14T11:32:49;48.97;;;23.23;;
73585;SDS011;61865;50.232;18.614;2023-12-14T11:35:11;52.45;;;21.40;;
73585;SDS011;61865;50.232;18.614;2023-12-14T11:37:34;41.25;;;19.48;;
73585;SDS011;61865;50.232;18.614;2023-12-14T11:39:56;52.05;;;24.05;;
73585;SDS011;61865;50.232;18.614;2023-12-14T11:42:18;56.88;;;25.50;;
73585;SDS011;61865;50.232;18.614;2023-12-14T11:44:41;53.60;;;24.33;;
73585;SDS011;61865;50.232;18.614;2023-12-14T11:47:03;56.47;;;23.52;;
73585;SDS011;61865;50.232;18.614;2023-12-14T11:49:27;57.22;;;23.23;;
73585;SDS011;61865;50.232;18.614;2023-12-14T11:51:50;56.55;;;24.38;;
73585;SDS011;61865;50.232;18.614;2023-12-14T11:54:12;70.45;;;28.00;;
73585;SDS011;61865;50.232;18.614;2023-12-14T11:56:35;58.03;;;25.90;;
73585;SDS011;61865;50.232;18.614;2023-12-14T11:58:58;60.53;;;25.25;;
73585;SDS011;61865;50.232;18.614;2023-12-14T12:01:20;59.70;;;24.00;;
73585;SDS011;61865;50.232;18.614;2023-12-14T12:03:43;63.60;;;26.52;;
73585;SDS011;61865;50.232;18.614;2023-12-14T12:06:07;60.13;;;26.20;;
73585;SDS011;61865;50.232;18.614;2023-12-14T12:08:29;54.53;;;24.45;;
73585;SDS011;61865;50.232;18.614;2023-12-14T12:10:52;52.40;;;24.48;;
73585;SDS011;61865;50.232;18.614;2023-12-14T12:13:15;44.60;;;19.95;;
73585;SDS011;61865;50.232;18.614;2023-12-14T12:15:38;42.90;;;18.13;;
73585;SDS011;61865;50.232;18.614;2023-12-14T12:18:00;54.55;;;23.35;;
73585;SDS011;61865;50.232;18.614;2023-12-14T12:20:22;55.08;;;23.95;;
73585;SDS011;61865;50.232;18.614;2023-12-14T12:22:47;59.63;;;25.95;;
73585;SDS011;61865;50.232;18.614;2023-12-14T12:25:09;57.80;;;24.10;;
73585;SDS011;61865;50.232;18.614;2023-12-14T12:27:31;67.45;;;26.95;;
73585;SDS011;61865;50.232;18.614;2023-12-14T12:29:54;71.85;;;26.75;;
73585;SDS011;61865;50.232;18.614;2023-12-14T12:32:16;48.83;;;21.23;;
73585;SDS011;61865;50.232;18.614;2023-12-14T12:34:38;58.80;;;24.48;;
73585;SDS011;61865;50.232;18.614;2023-12-14T12:37:01;52.13;;;23.25;;
73585;SDS011;61865;50.232;18.614;2023-12-14T12:39:24;52.83;;;23.65;;
73585;SDS011;61865;50.232;18.614;2023-12-14T12:41:48;46.67;;;19.17;;
73585;SDS011;61865;50.232;18.614;2023-12-14T12:44:10;48.15;;;21.95;;
73585;SDS011;61865;50.232;18.614;2023-12-14T12:46:33;51.95;;;22.92;;
73585;SDS011;61865;50.232;18.614;2023-12-14T12:48:55;55.25;;;21.67;;
73585;SDS011;61865;50.232;18.614;2023-12-14T12:51:17;58.30;;;24.60;;
73585;SDS011;61865;50.232;18.614;2023-12-14T12:53:41;60.75;;;24.17;;
73585;SDS011;61865;50.232;18.614;2023-12-14T12:56:05;67.13;;;24.83;;
73585;SDS011;61865;50.232;18.614;2023-12-14T12:58:28;72.63;;;27.58;;
73585;SDS011;61865;50.232;18.614;2023-12-14T13:00:50;81.57;;;31.02;;
73585;SDS011;61865;50.232;18.614;2023-12-14T13:03:12;63.33;;;25.63;;
73585;SDS011;61865;50.232;18.614;2023-12-14T13:05:34;67.47;;;26.20;;
73585;SDS011;61865;50.232;18.614;2023-12-14T13:07:57;59.67;;;22.98;;
73585;SDS011;61865;50.232;18.614;2023-12-14T13:10:20;58.30;;;24.52;;
73585;SDS011;61865;50.232;18.614;2023-12-14T13:12:48;63.97;;;24.80;;
73585;SDS011;61865;50.232;18.614;2023-12-14T13:15:10;78.60;;;31.38;;
73585;SDS011;61865;50.232;18.614;2023-12-14T13:17:32;95.63;;;31.58;;
73585;SDS011;61865;50.232;18.614;2023-12-14T13:19:55;77.35;;;29.55;;
73585;SDS011;61865;50.232;18.614;2023-12-14T13:22:19;69.70;;;26.73;;
73585;SDS011;61865;50.232;18.614;2023-12-14T13:24:43;77.93;;;30.60;;
73585;SDS011;61865;50.232;18.614;2023-12-14T13:27:05;59.05;;;25.67;;
73585;SDS011;61865;50.232;18.614;2023-12-14T13:29:29;58.80;;;24.92;;
73585;SDS011;61865;50.232;18.614;2023-12-14T13:31:52;56.78;;;27.48;;
73585;SDS011;61865;50.232;18.614;2023-12-14T13:34:14;57.95;;;26.48;;
73585;SDS011;61865;50.232;18.614;2023-12-14T13:36:37;55.08;;;26.40;;
73585;SDS011;61865;50.232;18.614;2023-12-14T13:38:59;48.90;;;24.20;;